Time;durP1;ratioP1;P1;durP2;ratioP2;P2;SDS_P1;SDS_P2;PMS_P1;PMS_P2;Temp;Humidity;BMP_temperature;BMP_pressure;BME280_temperature;BME280_humidity;BME280_pressure;Samples;Min_cycle;Max_cycle;Signal;HPM_P1;HPM_P2
2022/11/26 00:01:41;;;;;;;7.67;4.80;;;6.30;98.00;;;;;;5031659;28;20454;-67
2022/11/26 00:04:09;;;;;;;5.50;3.63;;;6.20;98.00;;;;;;5031464;28;20488;-67
2022/11/26 00:06:43;;;;;;;6.50;3.70;;;6.20;98.00;;;;;;5031733;28;20470;-67
2022/11/26 00:09:14;;;;;;;7.50;4.60;;;6.40;98.00;;;;;;5031755;28;20451;-67
2022/11/26 00:11:42;;;;;;;9.07;4.63;;;6.50;98.00;;;;;;5032597;28;20453;-67
2022/11/26 00:14:14;;;;;;;8.87;4.33;;;6.50;98.00;;;;;;5001710;28;20467;-67
2022/11/26 00:16:41;;;;;;;5.30;4.17;;;6.60;98.00;;;;;;5035278;28;20451;-67
2022/11/26 00:19:08;;;;;;;6.87;4.60;;;6.50;98.00;;;;;;5034930;28;20451;-67
2022/11/26 00:21:39;;;;;;;8.30;4.17;;;6.40;98.00;;;;;;5035243;28;20971;-67
2022/11/26 00:24:14;;;;;;;12.53;4.00;;;6.30;98.00;;;;;;5034884;28;20483;-67
2022/11/26 00:26:41;;;;;;;10.33;4.63;;;6.20;98.00;;;;;;5034780;28;20461;-67
2022/11/26 00:29:10;;;;;;;8.77;4.63;;;6.20;98.00;;;;;;5034815;28;20847;-67
2022/11/26 00:31:37;;;;;;;10.40;5.13;;;6.20;98.00;;;;;;5034869;28;20449;-67
2022/11/26 00:34:12;;;;;;;7.40;4.47;;;6.10;98.00;;;;;;5034689;28;20504;-66
2022/11/26 00:36:43;;;;;;;16.50;4.20;;;6.00;98.00;;;;;;5018516;28;20450;-67
2022/11/26 00:39:16;;;;;;;9.47;4.80;;;6.00;98.00;;;;;;5034715;28;20516;-67
2022/11/26 00:41:48;;;;;;;8.47;4.30;;;6.10;98.00;;;;;;5034746;28;20462;-67
2022/11/26 00:44:18;;;;;;;5.03;3.20;;;6.10;98.00;;;;;;5034584;28;20495;-67
2022/11/26 00:46:45;;;;;;;6.90;4.30;;;6.10;98.00;;;;;;5034694;28;20477;-67
2022/11/26 00:49:13;;;;;;;9.30;4.77;;;6.20;98.00;;;;;;5034571;28;20874;-67
2022/11/26 00:51:43;;;;;;;8.47;4.30;;;6.20;98.00;;;;;;5034655;28;20465;-67
2022/11/26 00:54:13;;;;;;;7.47;3.90;;;6.20;98.00;;;;;;5034426;28;20980;-67
2022/11/26 00:56:42;;;;;;;10.73;4.73;;;6.10;98.00;;;;;;5034483;28;20454;-67
2022/11/26 00:59:13;;;;;;;7.00;3.40;;;6.20;98.00;;;;;;5034579;28;20821;-66
2022/11/26 01:01:40;;;;;;;9.50;3.80;;;6.10;98.00;;;;;;5034591;28;20483;-67
2022/11/26 01:04:07;;;;;;;10.37;4.30;;;6.20;98.00;;;;;;5034393;28;20490;-67
2022/11/26 01:06:36;;;;;;;7.70;3.47;;;6.30;98.00;;;;;;5034648;28;20537;-67
2022/11/26 01:09:06;;;;;;;6.80;4.20;;;6.20;98.00;;;;;;5034285;28;20490;-67
2022/11/26 01:11:34;;;;;;;9.17;3.93;;;6.30;98.00;;;;;;5034130;28;20457;-67
2022/11/26 01:14:01;;;;;;;6.27;3.77;;;6.30;98.00;;;;;;5034219;28;20467;-67
2022/11/26 01:16:30;;;;;;;7.80;4.30;;;6.40;98.00;;;;;;5033839;28;21164;-67
2022/11/26 01:18:59;;;;;;;7.00;3.80;;;6.60;98.00;;;;;;5033925;28;20465;-67
2022/11/26 01:21:28;;;;;;;8.27;3.80;;;6.60;98.00;;;;;;5033858;28;20456;-66
2022/11/26 01:23:55;;;;;;;8.40;4.20;;;6.60;98.00;;;;;;5015998;28;20485;-67
2022/11/26 01:26:26;;;;;;;7.60;4.77;;;6.50;98.00;;;;;;5016387;28;20520;-66
2022/11/26 01:28:53;;;;;;;7.10;4.23;;;6.40;98.00;;;;;;5033674;28;20454;-67
2022/11/26 01:31:24;;;;;;;6.07;3.30;;;6.30;98.00;;;;;;5033811;28;20462;-67
2022/11/26 01:33:51;;;;;;;9.10;4.20;;;6.30;98.00;;;;;;5033748;28;20522;-67
2022/11/26 01:36:27;;;;;;;6.83;3.40;;;6.30;98.00;;;;;;5033678;28;20507;-67
2022/11/26 01:39:04;;;;;;;6.00;2.97;;;6.30;98.00;;;;;;5033639;28;20462;-67
2022/11/26 01:41:43;;;;;;;5.87;3.60;;;6.50;98.00;;;;;;5033540;28;20509;-67
2022/11/26 01:44:17;;;;;;;9.20;4.03;;;6.50;98.00;;;;;;5033494;28;20519;-67
2022/11/26 01:46:44;;;;;;;7.37;4.07;;;6.50;98.00;;;;;;5033421;28;20517;-67
2022/11/26 01:49:20;;;;;;;6.40;3.17;;;6.50;98.00;;;;;;5033454;28;20514;-67
2022/11/26 01:51:49;;;;;;;5.90;2.90;;;6.50;98.00;;;;;;5033310;28;20466;-67
2022/11/26 01:54:18;;;;;;;8.70;4.13;;;6.60;98.00;;;;;;5016208;28;20459;-67
2022/11/26 01:56:48;;;;;;;6.33;4.33;;;6.70;98.00;;;;;;5033371;28;20454;-67
2022/11/26 01:59:23;;;;;;;8.53;4.10;;;6.80;98.00;;;;;;5033771;28;20467;-67
2022/11/26 02:01:52;;;;;;;7.73;3.43;;;6.70;98.00;;;;;;5015582;28;20461;-67
2022/11/26 02:04:24;;;;;;;6.00;3.37;;;6.80;98.00;;;;;;5033112;28;20481;-67
2022/11/26 02:06:53;;;;;;;7.83;4.70;;;6.80;98.00;;;;;;5033233;28;20451;-67
2022/11/26 02:09:21;;;;;;;7.03;3.60;;;6.80;98.00;;;;;;5032956;28;20468;-67
2022/11/26 02:11:50;;;;;;;8.60;4.70;;;6.80;98.00;;;;;;5033031;28;20464;-67
2022/11/26 02:14:20;;;;;;;10.47;3.70;;;6.90;98.00;;;;;;5033059;28;20447;-67
2022/11/26 02:17:10;;;;;;;3.80;2.67;;;6.80;98.00;;;;;;5032831;28;20453;-67
2022/11/26 02:20:13;;;;;;;6.10;2.97;;;6.60;98.00;;;;;;5033058;28;20844;-67
2022/11/26 02:23:19;;;;;;;4.10;2.80;;;6.50;98.00;;;;;;5032871;28;20456;-67
2022/11/26 02:26:13;;;;;;;4.47;2.80;;;6.60;98.00;;;;;;5015437;28;20460;-67
2022/11/26 02:29:05;;;;;;;11.77;3.90;;;6.50;98.00;;;;;;5032769;28;20467;-67
2022/11/26 02:31:39;;;;;;;7.87;3.10;;;6.50;98.00;;;;;;5031449;28;20528;-67
2022/11/26 02:34:15;;;;;;;5.17;3.27;;;6.40;98.00;;;;;;5031866;28;20491;-67
2022/11/26 02:36:48;;;;;;;5.37;3.20;;;6.50;98.00;;;;;;5015895;28;20460;-67
2022/11/26 02:39:18;;;;;;;3.10;2.37;;;6.50;98.00;;;;;;5032625;28;20914;-67
2022/11/26 02:41:46;;;;;;;7.20;2.77;;;6.60;98.00;;;;;;5015303;28;20469;-67
2022/11/26 02:44:17;;;;;;;7.20;3.37;;;6.60;98.00;;;;;;5032291;28;20537;-67
2022/11/26 02:46:49;;;;;;;6.60;2.53;;;6.70;98.00;;;;;;5015589;28;20813;-67
2022/11/26 02:49:20;;;;;;;5.27;2.90;;;6.70;98.00;;;;;;5032497;28;20463;-67
2022/11/26 02:51:48;;;;;;;5.50;3.13;;;6.80;98.00;;;;;;5032569;28;20470;-66
2022/11/26 02:54:17;;;;;;;5.03;3.43;;;6.90;98.00;;;;;;5032291;28;20460;-67
2022/11/26 02:56:44;;;;;;;3.40;3.10;;;7.00;98.00;;;;;;5032405;28;21027;-67
2022/11/26 02:59:13;;;;;;;9.77;3.80;;;7.00;98.00;;;;;;5013866;28;20446;-67
2022/11/26 03:01:44;;;;;;;7.03;3.13;;;7.20;98.00;;;;;;5032212;28;20462;-67
2022/11/26 03:04:19;;;;;;;4.60;3.27;;;7.20;98.00;;;;;;5014234;28;20492;-66
2022/11/26 03:06:49;;;;;;;4.50;2.80;;;7.10;98.00;;;;;;5032074;28;20463;-67
2022/11/26 03:09:16;;;;;;;9.40;3.33;;;7.10;98.00;;;;;;5031940;28;20486;-67
2022/11/26 03:11:43;;;;;;;5.30;3.40;;;7.00;98.00;;;;;;5014484;28;20550;-67
2022/11/26 03:14:11;;;;;;;7.90;3.27;;;6.90;98.00;;;;;;5031952;28;20495;-67
2022/11/26 03:16:38;;;;;;;6.50;3.43;;;6.90;98.00;;;;;;5031852;28;20447;-67
2022/11/26 03:19:05;;;;;;;8.70;3.80;;;6.90;98.00;;;;;;5031936;28;20512;-67
2022/11/26 03:21:34;;;;;;;3.80;2.80;;;6.80;98.00;;;;;;5031915;28;20459;-67
2022/11/26 03:24:02;;;;;;;5.57;3.27;;;6.80;98.00;;;;;;5032046;28;20890;-67
2022/11/26 03:26:29;;;;;;;5.70;2.83;;;6.80;98.00;;;;;;5031771;28;20493;-67
2022/11/26 03:28:56;;;;;;;2.93;2.40;;;6.80;98.00;;;;;;5031978;28;21129;-67
2022/11/26 03:31:23;;;;;;;5.63;3.33;;;6.80;98.00;;;;;;5031820;28;20463;-67
2022/11/26 03:33:51;;;;;;;6.03;3.70;;;6.90;98.00;;;;;;5014439;28;20505;-67
2022/11/26 03:36:18;;;;;;;7.00;3.40;;;6.80;98.00;;;;;;5031833;28;20514;-67
2022/11/26 03:38:46;;;;;;;7.93;3.97;;;6.80;98.00;;;;;;5031901;28;20463;-67
2022/11/26 03:41:13;;;;;;;3.53;2.63;;;6.90;98.00;;;;;;5031929;28;20475;-67
2022/11/26 03:43:40;;;;;;;6.93;2.83;;;6.70;98.00;;;;;;5031873;28;21132;-67
2022/11/26 03:46:07;;;;;;;8.30;3.43;;;6.60;98.00;;;;;;5033601;28;20465;-67
2022/11/26 03:48:34;;;;;;;4.40;2.93;;;6.60;98.00;;;;;;5018307;28;20506;-67
2022/11/26 03:51:01;;;;;;;2.97;2.50;;;6.50;98.00;;;;;;5035518;28;20486;-67
2022/11/26 03:53:28;;;;;;;8.07;3.10;;;6.60;98.00;;;;;;5018312;28;21006;-67
2022/11/26 03:55:57;;;;;;;4.30;3.20;;;6.70;98.00;;;;;;5035360;28;20456;-67
2022/11/26 03:58:27;;;;;;;3.50;2.53;;;6.70;98.00;;;;;;5035329;28;20467;-67
2022/11/26 04:00:55;;;;;;;3.87;2.63;;;6.70;98.00;;;;;;5035411;28;20493;-67
2022/11/26 04:03:25;;;;;;;4.07;2.83;;;6.60;98.00;;;;;;5035234;28;20462;-67
2022/11/26 04:05:52;;;;;;;5.07;3.17;;;6.60;98.00;;;;;;5035379;28;20464;-67
2022/11/26 04:08:19;;;;;;;3.03;2.87;;;6.60;98.00;;;;;;5035334;28;20470;-67
2022/11/26 04:10:46;;;;;;;6.30;3.07;;;6.60;98.00;;;;;;5035336;28;20460;-67
2022/11/26 04:13:14;;;;;;;2.83;2.20;;;6.60;98.00;;;;;;5035102;28;20455;-67
2022/11/26 04:15:41;;;;;;;5.97;3.07;;;6.60;98.00;;;;;;5035218;28;20456;-66
2022/11/26 04:18:08;;;;;;;2.40;2.20;;;6.60;98.00;;;;;;5035300;28;20808;-67
2022/11/26 04:20:37;;;;;;;2.63;2.10;;;6.60;98.00;;;;;;5035061;28;20465;-67
2022/11/26 04:23:04;;;;;;;4.33;2.27;;;6.70;98.00;;;;;;5035220;28;20450;-67
2022/11/26 04:25:32;;;;;;;8.23;3.10;;;6.90;98.00;;;;;;5035080;28;20854;-67
2022/11/26 04:27:59;;;;;;;7.40;2.90;;;6.90;98.00;;;;;;5035282;28;20455;-67
2022/11/26 04:30:27;;;;;;;4.00;2.40;;;7.10;98.00;;;;;;5017582;28;20459;-67
2022/11/26 04:32:54;;;;;;;5.77;2.93;;;7.10;98.00;;;;;;5034982;28;20468;-67
2022/11/26 04:35:21;;;;;;;3.13;2.10;;;7.10;98.00;;;;;;5035069;28;20954;-67
2022/11/26 04:37:48;;;;;;;5.30;3.13;;;7.10;98.00;;;;;;5035162;28;20469;-67
2022/11/26 04:40:15;;;;;;;3.60;2.77;;;7.10;98.00;;;;;;5017341;28;20514;-67
2022/11/26 04:42:42;;;;;;;4.53;2.30;;;7.00;98.00;;;;;;5034795;28;21156;-67
2022/11/26 04:45:11;;;;;;;4.67;2.97;;;7.00;98.00;;;;;;5034482;28;20487;-67
2022/11/26 04:47:39;;;;;;;9.43;2.33;;;7.10;98.00;;;;;;5017156;28;20969;-67
2022/11/26 04:50:09;;;;;;;4.70;3.13;;;7.10;98.00;;;;;;5034382;28;20825;-67
2022/11/26 04:52:36;;;;;;;4.60;3.13;;;7.20;98.00;;;;;;5034575;28;20488;-67
2022/11/26 04:55:03;;;;;;;5.33;3.37;;;7.40;98.00;;;;;;5034369;28;20461;-67
2022/11/26 04:57:30;;;;;;;7.07;3.67;;;7.40;98.00;;;;;;5033521;28;20808;-67
2022/11/26 04:59:57;;;;;;;4.93;3.30;;;7.30;98.00;;;;;;5034329;28;20459;-67
2022/11/26 05:02:24;;;;;;;6.67;3.80;;;7.20;98.00;;;;;;5034194;28;20861;-67
2022/11/26 05:04:52;;;;;;;5.57;2.50;;;7.20;98.00;;;;;;5034252;28;20493;-67
2022/11/26 05:07:19;;;;;;;3.43;2.63;;;7.30;98.00;;;;;;5034116;28;20853;-67
2022/11/26 05:09:46;;;;;;;3.73;3.07;;;7.40;98.00;;;;;;5034091;28;20469;-67
2022/11/26 05:12:13;;;;;;;4.17;3.00;;;7.20;98.00;;;;;;5016556;28;20456;-66
2022/11/26 05:14:40;;;;;;;10.00;3.50;;;7.10;98.00;;;;;;5034245;28;20465;-67
2022/11/26 05:17:10;;;;;;;4.90;3.20;;;7.10;98.00;;;;;;5015732;28;20453;-67
2022/11/26 05:19:37;;;;;;;8.90;3.50;;;7.10;98.00;;;;;;5033352;28;20547;-67
2022/11/26 05:22:06;;;;;;;4.87;3.30;;;7.10;98.00;;;;;;5033183;28;20456;-67
2022/11/26 05:24:33;;;;;;;12.07;4.90;;;7.20;98.00;;;;;;5033815;28;20488;-67
2022/11/26 05:27:00;;;;;;;4.23;2.80;;;7.20;98.00;;;;;;5034034;28;20458;-67
2022/11/26 05:29:27;;;;;;;6.10;3.33;;;7.10;98.00;;;;;;5033978;28;20455;-67
2022/11/26 05:31:54;;;;;;;4.37;2.70;;;7.10;98.00;;;;;;5034168;28;20461;-67
2022/11/26 05:34:21;;;;;;;3.40;2.80;;;7.00;98.00;;;;;;5033799;28;20453;-67
2022/11/26 05:36:48;;;;;;;5.03;3.17;;;6.90;98.00;;;;;;5034005;28;20596;-67
2022/11/26 05:39:17;;;;;;;4.83;3.03;;;7.00;98.00;;;;;;5033483;28;20461;-67
2022/11/26 05:41:44;;;;;;;3.47;3.00;;;7.10;98.00;;;;;;5033667;28;20467;-67
2022/11/26 05:44:11;;;;;;;8.77;3.10;;;7.00;98.00;;;;;;5033305;28;20485;-66
2022/11/26 05:46:41;;;;;;;3.80;2.53;;;7.00;98.00;;;;;;5033333;28;20469;-67
2022/11/26 05:49:08;;;;;;;3.10;2.33;;;7.10;98.00;;;;;;5033368;28;20461;-67
2022/11/26 05:51:35;;;;;;;3.87;3.10;;;6.90;98.00;;;;;;5033370;28;20467;-66
2022/11/26 05:54:02;;;;;;;3.17;2.30;;;6.80;98.00;;;;;;5015773;28;20458;-67
2022/11/26 05:56:30;;;;;;;4.13;2.40;;;6.70;98.00;;;;;;5033285;28;20459;-67
2022/11/26 05:58:57;;;;;;;6.50;2.97;;;6.70;98.00;;;;;;5033449;28;20485;-67
2022/11/26 06:01:25;;;;;;;3.53;2.67;;;6.60;98.00;;;;;;5033013;28;20543;-67
2022/11/26 06:03:52;;;;;;;6.13;3.00;;;6.60;98.00;;;;;;5033072;28;20449;-67
2022/11/26 06:06:19;;;;;;;7.67;3.60;;;6.70;98.00;;;;;;5033077;28;20458;-67
2022/11/26 06:08:46;;;;;;;13.40;4.33;;;6.90;98.00;;;;;;5015661;28;20455;-67
2022/11/26 06:11:13;;;;;;;5.10;3.73;;;6.90;98.00;;;;;;5032988;28;20451;-67
2022/11/26 06:13:41;;;;;;;4.07;2.60;;;6.90;98.00;;;;;;5033163;28;20471;-67
2022/11/26 06:16:10;;;;;;;4.37;3.03;;;6.80;98.00;;;;;;5033000;28;20448;-67
2022/11/26 06:18:37;;;;;;;6.43;2.87;;;6.70;98.00;;;;;;5015607;28;20455;-67
2022/11/26 06:21:06;;;;;;;9.17;3.30;;;6.70;98.00;;;;;;5032797;28;20863;-67
2022/11/26 06:23:34;;;;;;;4.70;3.00;;;6.70;98.00;;;;;;5032931;28;20455;-67
2022/11/26 06:26:01;;;;;;;4.40;2.70;;;6.70;98.00;;;;;;5032817;28;20495;-67
2022/11/26 06:28:28;;;;;;;5.87;2.83;;;6.70;98.00;;;;;;5032995;28;20530;-67
2022/11/26 06:30:57;;;;;;;4.17;2.80;;;6.80;98.00;;;;;;5015181;28;20471;-67
2022/11/26 06:33:24;;;;;;;7.20;3.00;;;6.80;98.00;;;;;;5032474;28;20463;-67
2022/11/26 06:35:51;;;;;;;24.13;3.03;;;6.90;98.00;;;;;;5015300;28;20521;-67
2022/11/26 06:38:26;;;;;;;4.23;2.37;;;7.00;98.00;;;;;;5032478;28;20467;-67
2022/11/26 06:40:58;;;;;;;6.27;3.70;;;7.10;98.00;;;;;;5016033;28;20467;-67
2022/11/26 06:43:26;;;;;;;6.73;3.50;;;7.20;98.00;;;;;;5014833;28;20551;-67
2022/11/26 06:45:53;;;;;;;9.10;3.90;;;7.10;98.00;;;;;;5032346;28;20989;-67
2022/11/26 06:48:24;;;;;;;16.73;3.40;;;7.00;98.00;;;;;;5032337;28;20465;-67
2022/11/26 06:50:51;;;;;;;4.77;3.10;;;6.90;98.00;;;;;;5032406;28;20554;-67
2022/11/26 06:53:19;;;;;;;6.37;3.57;;;7.00;98.00;;;;;;5032189;28;20452;-67
2022/11/26 06:55:46;;;;;;;4.40;3.00;;;7.00;98.00;;;;;;5032105;28;20962;-67
2022/11/26 06:58:14;;;;;;;6.37;3.70;;;7.00;98.00;;;;;;5032167;28;20459;-67
2022/11/26 07:00:42;;;;;;;3.77;2.60;;;7.10;98.00;;;;;;5032154;28;20491;-67
2022/11/26 07:03:09;;;;;;;4.80;2.63;;;7.10;98.00;;;;;;5032144;28;20951;-67
2022/11/26 07:05:37;;;;;;;6.87;3.10;;;7.10;98.00;;;;;;5032008;28;20548;-67
2022/11/26 07:08:05;;;;;;;4.70;3.10;;;7.10;98.00;;;;;;5032194;28;20464;-67
2022/11/26 07:10:32;;;;;;;3.33;2.50;;;7.10;98.00;;;;;;5032035;28;20940;-67
2022/11/26 07:13:00;;;;;;;7.53;3.70;;;7.10;98.00;;;;;;5032018;28;20460;-67
2022/11/26 07:15:27;;;;;;;8.27;4.13;;;7.30;98.00;;;;;;5031871;28;20503;-67
2022/11/26 07:17:58;;;;;;;4.40;2.80;;;7.30;98.00;;;;;;5032054;28;20942;-67
2022/11/26 07:20:26;;;;;;;4.97;2.83;;;7.30;98.00;;;;;;5031786;28;20873;-67
2022/11/26 07:22:54;;;;;;;6.57;2.93;;;7.30;98.00;;;;;;5031809;28;20944;-67
2022/11/26 07:25:21;;;;;;;6.37;3.40;;;7.40;98.00;;;;;;5031235;28;20493;-67
2022/11/26 07:27:48;;;;;;;6.10;2.63;;;7.40;98.00;;;;;;5031775;28;20474;-67
2022/11/26 07:30:16;;;;;;;5.60;3.10;;;7.50;98.00;;;;;;5031706;28;20536;-67
2022/11/26 07:32:43;;;;;;;6.97;4.33;;;7.50;98.00;;;;;;5031709;28;20467;-67
2022/11/26 07:35:10;;;;;;;5.33;3.10;;;7.60;98.00;;;;;;5031776;28;20872;-67
2022/11/26 07:37:37;;;;;;;7.63;3.67;;;7.60;98.00;;;;;;5031564;28;20461;-68
2022/11/26 07:40:07;;;;;;;7.47;3.70;;;7.70;98.00;;;;;;5031699;28;20461;-67
2022/11/26 07:42:34;;;;;;;8.30;4.00;;;7.70;98.00;;;;;;5031459;28;20455;-66
2022/11/26 07:45:02;;;;;;;6.37;3.10;;;7.80;98.00;;;;;;5031644;28;21002;-64
2022/11/26 07:47:30;;;;;;;5.93;3.43;;;7.90;98.00;;;;;;5027257;28;20449;-63
2022/11/26 07:49:57;;;;;;;3.93;2.80;;;7.80;98.00;;;;;;5011230;28;20466;-64
2022/11/26 07:52:24;;;;;;;6.83;3.67;;;7.80;98.00;;;;;;5011131;28;20466;-64
2022/11/26 07:54:51;;;;;;;6.43;3.90;;;7.70;98.00;;;;;;5011203;28;21079;-64
2022/11/26 07:57:21;;;;;;;9.03;3.67;;;7.70;98.00;;;;;;5010979;28;20887;-64
2022/11/26 07:59:48;;;;;;;6.80;3.83;;;7.70;98.00;;;;;;5011518;28;20457;-64
2022/11/26 08:02:16;;;;;;;6.07;2.90;;;7.80;98.00;;;;;;5011118;28;20494;-64
2022/11/26 08:04:43;;;;;;;6.13;3.47;;;7.80;98.00;;;;;;5011466;28;20459;-64
2022/11/26 08:07:10;;;;;;;6.87;3.37;;;7.90;98.00;;;;;;5011064;28;20522;-63
2022/11/26 08:09:37;;;;;;;9.00;3.70;;;7.70;98.00;;;;;;5011255;28;20458;-64
2022/11/26 08:12:05;;;;;;;7.00;3.00;;;7.80;98.00;;;;;;5011158;28;20463;-64
2022/11/26 08:14:35;;;;;;;9.73;3.50;;;7.80;98.00;;;;;;5011303;28;20456;-64
2022/11/26 08:17:02;;;;;;;4.43;2.93;;;8.00;98.00;;;;;;5011555;28;20550;-64
2022/11/26 08:19:29;;;;;;;6.40;3.67;;;8.20;98.00;;;;;;5010816;28;20477;-64
2022/11/26 08:21:56;;;;;;;5.97;3.70;;;8.20;98.00;;;;;;5009801;28;20458;-64
2022/11/26 08:24:23;;;;;;;3.83;2.70;;;8.00;98.00;;;;;;5010899;28;20457;-63
2022/11/26 08:26:50;;;;;;;4.53;2.77;;;7.90;98.00;;;;;;5010833;28;20846;-64
2022/11/26 08:29:17;;;;;;;4.70;3.40;;;7.80;98.00;;;;;;5010760;28;20466;-64
2022/11/26 08:31:46;;;;;;;4.23;2.60;;;7.80;98.00;;;;;;5010818;28;20473;-64
2022/11/26 08:34:14;;;;;;;4.70;2.93;;;7.80;98.00;;;;;;5014119;28;20464;-63
2022/11/26 08:36:42;;;;;;;4.40;3.37;;;7.80;98.00;;;;;;5014422;28;20544;-64
2022/11/26 08:39:12;;;;;;;7.77;3.90;;;7.90;98.00;;;;;;5014641;28;20460;-64
2022/11/26 08:41:39;;;;;;;6.10;3.10;;;7.90;98.00;;;;;;5012460;28;21067;-64
2022/11/26 08:44:06;;;;;;;4.40;3.00;;;8.00;98.00;;;;;;5011234;28;20458;-64
2022/11/26 08:46:33;;;;;;;6.73;3.70;;;8.00;98.00;;;;;;5011225;28;20494;-64
2022/11/26 08:49:01;;;;;;;5.77;2.77;;;8.00;98.00;;;;;;5011731;28;20490;-64
2022/11/26 08:51:29;;;;;;;5.70;3.03;;;7.90;98.00;;;;;;5009368;28;20463;-64
2022/11/26 08:53:56;;;;;;;7.93;2.77;;;8.00;98.00;;;;;;5011409;28;20467;-64
2022/11/26 08:56:23;;;;;;;5.73;3.67;;;8.00;98.00;;;;;;5011298;28;20471;-64
2022/11/26 08:58:50;;;;;;;4.70;3.23;;;7.90;98.00;;;;;;5011358;28;20465;-64
2022/11/26 09:01:19;;;;;;;6.47;3.07;;;7.90;98.00;;;;;;5011131;28;20459;-65
2022/11/26 09:03:48;;;;;;;5.87;2.90;;;7.90;98.00;;;;;;5011386;28;20965;-65
2022/11/26 09:06:17;;;;;;;5.30;3.17;;;7.90;98.00;;;;;;5011171;28;20503;-64
2022/11/26 09:09:11;;;;;;;4.90;3.07;;;8.00;98.00;;;;;;5011235;28;20582;-65
2022/11/26 09:11:34;;;;;;;4.87;2.90;;;8.10;98.00;;;;;;5013361;28;20458;-65
2022/11/26 09:14:01;;;;;;;9.20;3.93;;;8.10;98.00;;;;;;5013572;28;20485;-65
2022/11/26 09:16:29;;;;;;;6.30;3.60;;;8.10;98.00;;;;;;5013674;28;20492;-64
2022/11/26 09:18:56;;;;;;;7.00;3.33;;;8.20;98.00;;;;;;5013183;28;20462;-64
2022/11/26 09:21:24;;;;;;;6.10;3.60;;;8.30;98.00;;;;;;5013356;28;20477;-65
2022/11/26 09:23:51;;;;;;;8.50;3.90;;;8.30;98.00;;;;;;5013493;28;20476;-64
2022/11/26 09:26:20;;;;;;;3.77;2.70;;;8.40;98.00;;;;;;5013443;28;20576;-64
2022/11/26 09:28:48;;;;;;;4.13;2.70;;;8.30;98.00;;;;;;5013435;28;20525;-65
2022/11/26 09:31:15;;;;;;;7.03;3.50;;;8.30;98.00;;;;;;5013333;28;20487;-65
2022/11/26 09:33:43;;;;;;;4.50;2.90;;;8.30;98.00;;;;;;5013277;28;20462;-64
2022/11/26 09:36:12;;;;;;;3.90;3.40;;;8.40;98.00;;;;;;5013254;28;20592;-65
2022/11/26 09:38:41;;;;;;;8.93;3.77;;;8.40;98.00;;;;;;5013356;28;20485;-65
2022/11/26 09:41:17;;;;;;;5.77;2.73;;;8.30;98.00;;;;;;5013205;28;20471;-65
2022/11/26 09:44:02;;;;;;;4.83;3.23;;;8.40;98.00;;;;;;5013076;28;20470;-65
2022/11/26 09:46:37;;;;;;;4.83;2.60;;;8.50;98.00;;;;;;5013127;28;21019;-65
2022/11/26 09:49:05;;;;;;;5.10;2.70;;;8.50;98.00;;;;;;5013057;28;20817;-65
2022/11/26 09:51:34;;;;;;;3.27;2.80;;;8.60;98.00;;;;;;5013034;28;20514;-65
2022/11/26 09:54:05;;;;;;;3.27;2.80;;;8.60;98.00;;;;;;5013406;28;20517;-64
2022/11/26 09:56:34;;;;;;;4.73;2.63;;;8.70;98.00;;;;;;5012987;28;20455;-65
2022/11/26 09:59:04;;;;;;;3.83;2.47;;;8.70;98.00;;;;;;4995912;28;20503;-65
2022/11/26 10:01:33;;;;;;;3.27;2.20;;;8.70;98.00;;;;;;5012895;28;20487;-65
2022/11/26 10:04:00;;;;;;;9.27;3.00;;;8.70;98.00;;;;;;5013126;28;20554;-64
2022/11/26 10:06:40;;;;;;;2.13;1.70;;;8.80;98.00;;;;;;5012841;28;20522;-65
2022/11/26 10:09:33;;;;;;;4.03;1.80;;;8.80;98.00;;;;;;5012885;28;20482;-65
2022/11/26 10:12:06;;;;;;;3.47;2.20;;;8.80;98.00;;;;;;5010996;28;20460;-65
2022/11/26 10:14:46;;;;;;;4.23;2.33;;;8.90;98.00;;;;;;5012767;28;20490;-65
2022/11/26 10:17:29;;;;;;;3.93;2.10;;;9.00;98.00;;;;;;5012491;28;20525;-64
2022/11/26 10:20:28;;;;;;;4.93;3.10;;;9.20;98.00;;;;;;5012385;28;20473;-65
2022/11/26 10:23:02;;;;;;;5.50;3.37;;;9.40;98.00;;;;;;5012400;28;20528;-65
2022/11/26 10:25:38;;;;;;;8.10;3.77;;;9.40;98.00;;;;;;5012454;28;20486;-64
2022/11/26 10:28:16;;;;;;;3.97;3.10;;;9.60;98.00;;;;;;5012423;28;20875;-65
2022/11/26 10:30:45;;;;;;;16.00;4.40;;;9.70;98.00;;;;;;5012284;28;20463;-65
2022/11/26 10:33:18;;;;;;;5.80;2.97;;;9.70;98.00;;;;;;5010907;28;20664;-65
2022/11/26 10:35:49;;;;;;;8.10;4.17;;;9.70;98.00;;;;;;4995135;28;20455;-65
2022/11/26 10:38:16;;;;;;;7.63;4.00;;;9.80;98.00;;;;;;5012150;28;20475;-65
2022/11/26 10:40:45;;;;;;;3.70;2.73;;;9.80;98.00;;;;;;5012673;28;20551;-65
2022/11/26 10:43:18;;;;;;;4.77;2.67;;;9.70;98.00;;;;;;5015456;28;20456;-65
2022/11/26 10:45:47;;;;;;;3.40;2.50;;;9.70;98.00;;;;;;5024942;28;20482;-65
2022/11/26 10:48:19;;;;;;;3.50;2.20;;;9.70;98.00;;;;;;5031734;28;20550;-65
2022/11/26 10:50:59;;;;;;;8.53;3.27;;;9.70;98.00;;;;;;5031962;28;20821;-65
2022/11/26 10:53:27;;;;;;;6.63;3.30;;;9.80;98.00;;;;;;5031660;28;20549;-65
2022/11/26 10:55:58;;;;;;;7.03;3.10;;;9.90;98.00;;;;;;5030905;28;20451;-65
2022/11/26 10:58:28;;;;;;;4.20;2.60;;;9.90;98.00;;;;;;5031473;28;21006;-65
2022/11/26 11:00:59;;;;;;;3.70;2.20;;;9.80;98.00;;;;;;5031291;28;20467;-65
2022/11/26 11:03:30;;;;;;;6.03;2.10;;;9.70;98.00;;;;;;5031535;28;20550;-65
2022/11/26 11:06:34;;;;;;;4.73;2.30;;;9.80;98.00;;;;;;5030862;28;20996;-65
2022/11/26 11:09:27;;;;;;;4.50;1.80;;;9.80;98.00;;;;;;4960434;28;20826;-65
2022/11/26 11:12:19;;;;;;;6.90;2.70;;;9.90;98.00;;;;;;5011718;28;20459;-65
2022/11/26 11:14:47;;;;;;;3.87;2.23;;;10.10;98.00;;;;;;5000761;28;20480;-64
2022/11/26 11:17:33;;;;;;;10.40;4.43;;;10.10;98.00;;;;;;5011468;28;20462;-65
2022/11/26 11:20:22;;;;;;;6.40;2.50;;;10.20;98.00;;;;;;5011709;28;20467;-64
2022/11/26 11:22:58;;;;;;;3.60;2.70;;;10.20;98.00;;;;;;5011896;28;20455;-65
2022/11/26 11:25:28;;;;;;;6.80;3.43;;;10.30;98.00;;;;;;5012520;28;20473;-65
2022/11/26 11:28:02;;;;;;;3.40;2.50;;;10.40;98.00;;;;;;5012285;28;20972;-64
2022/11/26 11:30:32;;;;;;;5.70;2.77;;;10.40;98.00;;;;;;5011408;28;20451;-65
2022/11/26 11:33:11;;;;;;;5.10;2.10;;;10.40;98.00;;;;;;5011526;28;20469;-65
2022/11/26 11:35:38;;;;;;;7.27;2.87;;;10.30;98.00;;;;;;5011800;28;20487;-65
2022/11/26 11:38:21;;;;;;;4.23;2.70;;;10.40;98.00;;;;;;5011260;28;20497;-64
2022/11/26 11:40:49;;;;;;;3.20;2.20;;;10.30;98.00;;;;;;5011299;28;20461;-65
2022/11/26 11:43:21;;;;;;;5.00;2.33;;;10.30;98.00;;;;;;5011221;28;20455;-65
2022/11/26 11:46:09;;;;;;;5.80;3.40;;;10.40;98.00;;;;;;5011229;28;20451;-65
2022/11/26 11:48:48;;;;;;;3.93;2.23;;;10.70;98.00;;;;;;5008462;28;20472;-65
2022/11/26 11:51:24;;;;;;;4.50;2.20;;;10.90;98.00;;;;;;5011297;28;20473;-65
2022/11/26 11:54:02;;;;;;;2.90;1.97;;;11.00;98.00;;;;;;5011569;28;20462;-65
2022/11/26 11:56:36;;;;;;;3.80;2.20;;;10.90;98.00;;;;;;5011254;28;21024;-65
2022/11/26 11:59:21;;;;;;;2.53;1.70;;;10.70;98.00;;;;;;5011203;28;20492;-65
2022/11/26 12:02:17;;;;;;;2.53;1.83;;;11.00;98.00;;;;;;5011297;28;20459;-65
2022/11/26 12:05:01;;;;;;;3.53;2.30;;;11.30;98.00;;;;;;5011195;28;20514;-64
2022/11/26 12:07:39;;;;;;;3.83;2.10;;;11.40;98.00;;;;;;5013042;28;20487;-65
2022/11/26 12:10:14;;;;;;;2.47;1.97;;;11.20;98.00;;;;;;5014950;28;20883;-64
2022/11/26 12:12:46;;;;;;;17.87;2.00;;;11.10;98.00;;;;;;5019773;28;20455;-65
2022/11/26 12:15:22;;;;;;;5.00;2.30;;;10.80;98.00;;;;;;5014784;28;20949;-65
2022/11/26 12:17:55;;;;;;;4.00;2.03;;;10.60;98.00;;;;;;5014628;28;20459;-65
2022/11/26 12:20:30;;;;;;;6.77;3.00;;;10.50;98.00;;;;;;4997780;28;20468;-65
2022/11/26 12:23:06;;;;;;;5.30;2.07;;;10.40;98.00;;;;;;5014440;28;20475;-64
2022/11/26 12:25:35;;;;;;;2.50;1.83;;;10.60;98.00;;;;;;4997305;28;20455;-65
2022/11/26 12:28:10;;;;;;;4.03;1.83;;;11.20;98.00;;;;;;5014555;28;20490;-65
2022/11/26 12:30:46;;;;;;;3.77;2.27;;;11.80;98.00;;;;;;5014570;28;20544;-65
2022/11/26 12:33:25;;;;;;;3.50;2.07;;;12.60;98.00;;;;;;5014389;28;20466;-65
2022/11/26 12:35:56;;;;;;;6.37;2.30;;;13.10;98.00;;;;;;5014344;28;20460;-65
2022/11/26 12:38:28;;;;;;;5.73;2.30;;;13.60;98.00;;;;;;5014661;28;20491;-65
2022/11/26 12:41:01;;;;;;;4.13;1.97;;;13.90;98.00;;;;;;5014461;28;20459;-65
2022/11/26 12:43:43;;;;;;;3.77;1.80;;;14.00;98.00;;;;;;5014454;28;20977;-65
2022/11/26 12:46:18;;;;;;;3.60;2.10;;;14.30;98.00;;;;;;5014314;28;20515;-65
2022/11/26 12:48:51;;;;;;;3.20;1.90;;;14.50;98.00;;;;;;5014431;28;20487;-65
2022/11/26 12:51:26;;;;;;;2.73;2.00;;;14.80;98.00;;;;;;5014444;28;20455;-65
2022/11/26 12:54:02;;;;;;;2.70;1.90;;;14.90;98.00;;;;;;5014210;28;20522;-65
2022/11/26 12:56:36;;;;;;;12.20;2.10;;;15.10;98.00;;;;;;5014149;28;20875;-65
2022/11/26 12:59:07;;;;;;;3.87;2.27;;;15.20;98.00;;;;;;5014044;28;20954;-65
2022/11/26 13:01:36;;;;;;;2.50;1.93;;;15.10;98.00;;;;;;5013922;28;20465;-65
2022/11/26 13:04:04;;;;;;;3.17;2.13;;;15.10;98.00;;;;;;5013854;28;20466;-65
2022/11/26 13:06:47;;;;;;;3.10;1.93;;;14.80;98.00;;;;;;5013680;28;20485;-65
2022/11/26 13:09:30;;;;;;;3.00;2.03;;;14.50;98.00;;;;;;4998148;28;20467;-65
2022/11/26 13:14:55;;;;;;;2.73;2.10;;;13.80;98.00;;;;;;5013454;28;20464;-65
2022/11/26 13:17:33;;;;;;;5.70;2.20;;;13.60;98.00;;;;;;5013734;28;21102;-65